sensor_id;sensor_type;location;lat;lon;timestamp;P1;durP1;ratioP1;P2;durP2;ratioP2
38037;SDS011;23843;51.320;12.340;2023-01-16T05:31:24;2.27;;;0.90;;
38037;SDS011;23843;51.320;12.340;2023-01-16T05:33:49;1.97;;;1.00;;
38037;SDS011;23843;51.320;12.340;2023-01-16T05:36:15;1.77;;;0.97;;
38037;SDS011;23843;51.320;12.340;2023-01-16T05:38:40;3.53;;;1.03;;
38037;SDS011;23843;51.320;12.340;2023-01-16T05:41:06;2.83;;;0.90;;
38037;SDS011;23843;51.320;12.340;2023-01-16T05:43:31;2.73;;;0.90;;
38037;SDS011;23843;51.320;12.340;2023-01-16T05:45:57;3.20;;;0.90;;
38037;SDS011;23843;51.320;12.340;2023-01-16T05:48:24;2.20;;;0.93;;
38037;SDS011;23843;51.320;12.340;2023-01-16T05:50:49;3.57;;;1.03;;
38037;SDS011;23843;51.320;12.340;2023-01-16T05:53:14;3.70;;;1.00;;
38037;SDS011;23843;51.320;12.340;2023-01-16T05:55:41;1.67;;;0.87;;
38037;SDS011;23843;51.320;12.340;2023-01-16T05:58:08;1.80;;;0.80;;
38037;SDS011;23843;51.320;12.340;2023-01-16T06:00:34;2.23;;;0.80;;
38037;SDS011;23843;51.320;12.340;2023-01-16T06:02:59;2.43;;;0.70;;
38037;SDS011;23843;51.320;12.340;2023-01-16T06:05:26;1.27;;;0.63;;
38037;SDS011;23843;51.320;12.340;2023-01-16T06:07:53;3.33;;;1.20;;
38037;SDS011;23843;51.320;12.340;2023-01-16T06:10:19;3.87;;;0.70;;
38037;SDS011;23843;51.320;12.340;2023-01-16T06:12:45;3.57;;;1.30;;
38037;SDS011;23843;51.320;12.340;2023-01-16T06:15:10;2.33;;;0.80;;
38037;SDS011;23843;51.320;12.340;2023-01-16T06:17:35;1.27;;;0.60;;
38037;SDS011;23843;51.320;12.340;2023-01-16T06:20:01;0.90;;;0.60;;
38037;SDS011;23843;51.320;12.340;2023-01-16T06:22:28;3.87;;;0.87;;
38037;SDS011;23843;51.320;12.340;2023-01-16T06:24:53;1.10;;;0.60;;
38037;SDS011;23843;51.320;12.340;2023-01-16T06:27:19;2.63;;;0.70;;
38037;SDS011;23843;51.320;12.340;2023-01-16T06:29:44;2.77;;;0.70;;
38037;SDS011;23843;51.320;12.340;2023-01-16T06:32:10;1.30;;;0.50;;
38037;SDS011;23843;51.320;12.340;2023-01-16T06:34:35;1.77;;;0.60;;
38037;SDS011;23843;51.320;12.340;2023-01-16T06:37:00;1.83;;;0.73;;
38037;SDS011;23843;51.320;12.340;2023-01-16T06:39:27;1.90;;;0.80;;
38037;SDS011;23843;51.320;12.340;2023-01-16T06:41:53;2.53;;;0.80;;
38037;SDS011;23843;51.320;12.340;2023-01-16T06:44:18;1.60;;;0.60;;
38037;SDS011;23843;51.320;12.340;2023-01-16T06:46:43;1.73;;;0.60;;
38037;SDS011;23843;51.320;12.340;2023-01-16T06:49:09;0.77;;;0.43;;
38037;SDS011;23843;51.320;12.340;2023-01-16T06:51:34;1.87;;;0.47;;
38037;SDS011;23843;51.320;12.340;2023-01-16T06:54:00;0.90;;;0.50;;
38037;SDS011;23843;51.320;12.340;2023-01-16T06:56:27;1.53;;;0.60;;
38037;SDS011;23843;51.320;12.340;2023-01-16T06:58:52;1.27;;;0.70;;
38037;SDS011;23843;51.320;12.340;2023-01-16T07:01:17;1.87;;;0.90;;
38037;SDS011;23843;51.320;12.340;2023-01-16T07:03:43;2.00;;;0.60;;
38037;SDS011;23843;51.320;12.340;2023-01-16T07:06:09;2.37;;;0.67;;
38037;SDS011;23843;51.320;12.340;2023-01-16T07:08:34;0.67;;;0.40;;
38037;SDS011;23843;51.320;12.340;2023-01-16T07:11:00;2.63;;;0.60;;
38037;SDS011;23843;51.320;12.340;2023-01-16T07:13:27;1.80;;;0.60;;
38037;SDS011;23843;51.320;12.340;2023-01-16T07:15:52;1.37;;;0.50;;
38037;SDS011;23843;51.320;12.340;2023-01-16T07:18:18;0.80;;;0.50;;
38037;SDS011;23843;51.320;12.340;2023-01-16T07:20:50;2.70;;;1.40;;
38037;SDS011;23843;51.320;12.340;2023-01-16T07:23:18;1.13;;;0.80;;
38037;SDS011;23843;51.320;12.340;2023-01-16T07:25:46;2.57;;;0.60;;
38037;SDS011;23843;51.320;12.340;2023-01-16T07:28:13;1.60;;;0.70;;
38037;SDS011;23843;51.320;12.340;2023-01-16T07:30:40;1.37;;;0.60;;
38037;SDS011;23843;51.320;12.340;2023-01-16T07:33:07;1.60;;;0.70;;
38037;SDS011;23843;51.320;12.340;2023-01-16T07:35:33;1.60;;;0.80;;
38037;SDS011;23843;51.320;12.340;2023-01-16T07:37:58;0.83;;;0.60;;
38037;SDS011;23843;51.320;12.340;2023-01-16T07:40:24;1.57;;;0.80;;
38037;SDS011;23843;51.320;12.340;2023-01-16T07:42:49;0.80;;;0.50;;
38037;SDS011;23843;51.320;12.340;2023-01-16T07:45:15;2.40;;;1.03;;
38037;SDS011;23843;51.320;12.340;2023-01-16T07:47:42;4.83;;;1.70;;
38037;SDS011;23843;51.320;12.340;2023-01-16T07:50:08;5.47;;;1.90;;
38037;SDS011;23843;51.320;12.340;2023-01-16T07:52:34;3.73;;;1.13;;
38037;SDS011;23843;51.320;12.340;2023-01-16T07:54:59;2.70;;;0.90;;
38037;SDS011;23843;51.320;12.340;2023-01-16T07:57:24;1.63;;;0.80;;
38037;SDS011;23843;51.320;12.340;2023-01-16T07:59:50;2.60;;;0.87;;
38037;SDS011;23843;51.320;12.340;2023-01-16T08:02:16;3.17;;;0.80;;
38037;SDS011;23843;51.320;12.340;2023-01-16T08:04:42;2.13;;;1.00;;
38037;SDS011;23843;51.320;12.340;2023-01-16T08:07:08;2.43;;;0.93;;
38037;SDS011;23843;51.320;12.340;2023-01-16T08:09:33;2.23;;;0.80;;
38037;SDS011;23843;51.320;12.340;2023-01-16T08:11:59;2.53;;;1.10;;
38037;SDS011;23843;51.320;12.340;2023-01-16T08:14:24;2.50;;;0.80;;
38037;SDS011;23843;51.320;12.340;2023-01-16T08:16:50;1.97;;;1.07;;
38037;SDS011;23843;51.320;12.340;2023-01-16T08:19:15;3.17;;;0.90;;
38037;SDS011;23843;51.320;12.340;2023-01-16T08:21:42;2.40;;;0.77;;
38037;SDS011;23843;51.320;12.340;2023-01-16T08:24:07;1.93;;;0.83;;
38037;SDS011;23843;51.320;12.340;2023-01-16T08:26:33;2.40;;;1.00;;
38037;SDS011;23843;51.320;12.340;2023-01-16T08:28:59;3.57;;;0.93;;
38037;SDS011;23843;51.320;12.340;2023-01-16T08:31:24;1.90;;;0.70;;
38037;SDS011;23843;51.320;12.340;2023-01-16T08:33:50;1.77;;;0.97;;
38037;SDS011;23843;51.320;12.340;2023-01-16T08:36:15;2.13;;;0.90;;
38037;SDS011;23843;51.320;12.340;2023-01-16T08:38:42;1.50;;;0.77;;
38037;SDS011;23843;51.320;12.340;2023-01-16T08:41:08;2.80;;;1.30;;
38037;SDS011;23843;51.320;12.340;2023-01-16T08:43:34;2.47;;;1.23;;
38037;SDS011;23843;51.320;12.340;2023-01-16T08:45:59;2.27;;;1.13;;
38037;SDS011;23843;51.320;12.340;2023-01-16T08:48:26;2.93;;;1.17;;
38037;SDS011;23843;51.320;12.340;2023-01-16T08:50:52;2.40;;;1.10;;
38037;SDS011;23843;51.320;12.340;2023-01-16T08:53:18;3.97;;;1.33;;
38037;SDS011;23843;51.320;12.340;2023-01-16T08:55:44;2.73;;;0.83;;
38037;SDS011;23843;51.320;12.340;2023-01-16T08:58:10;2.20;;;1.20;;
38037;SDS011;23843;51.320;12.340;2023-01-16T09:00:35;1.23;;;0.73;;
38037;SDS011;23843;51.320;12.340;2023-01-16T09:03:01;2.23;;;0.90;;
38037;SDS011;23843;51.320;12.340;2023-01-16T09:05:27;2.43;;;1.00;;
38037;SDS011;23843;51.320;12.340;2023-01-16T09:07:53;1.43;;;1.03;;
38037;SDS011;23843;51.320;12.340;2023-01-16T09:10:18;1.33;;;0.87;;
38037;SDS011;23843;51.320;12.340;2023-01-16T09:12:46;1.83;;;0.90;;
38037;SDS011;23843;51.320;12.340;2023-01-16T09:15:11;2.00;;;0.90;;
38037;SDS011;23843;51.320;12.340;2023-01-16T09:17:36;2.13;;;0.93;;
38037;SDS011;23843;51.320;12.340;2023-01-16T09:20:02;2.17;;;0.90;;
38037;SDS011;23843;51.320;12.340;2023-01-16T09:22:28;2.17;;;1.00;;
38037;SDS011;23843;51.320;12.340;2023-01-16T09:24:53;2.03;;;0.97;;
38037;SDS011;23843;51.320;12.340;2023-01-16T09:27:19;1.83;;;0.90;;
38037;SDS011;23843;51.320;12.340;2023-01-16T09:29:46;1.27;;;0.80;;
38037;SDS011;23843;51.320;12.340;2023-01-16T09:32:11;2.57;;;0.83;;
38037;SDS011;23843;51.320;12.340;2023-01-16T09:34:37;2.73;;;1.20;;
38037;SDS011;23843;51.320;12.340;2023-01-16T09:37:03;2.30;;;1.20;;
38037;SDS011;23843;51.320;12.340;2023-01-16T09:39:30;2.53;;;1.20;;
38037;SDS011;23843;51.320;12.340;2023-01-16T09:41:59;1.90;;;1.50;;
38037;SDS011;23843;51.320;12.340;2023-01-16T09:44:36;1.67;;;0.90;;
38037;SDS011;23843;51.320;12.340;2023-01-16T09:47:03;1.97;;;0.90;;
38037;SDS011;23843;51.320;12.340;2023-01-16T09:49:30;1.87;;;1.00;;
38037;SDS011;23843;51.320;12.340;2023-01-16T09:52:02;1.63;;;1.00;;
38037;SDS011;23843;51.320;12.340;2023-01-16T09:54:32;2.27;;;0.80;;
38037;SDS011;23843;51.320;12.340;2023-01-16T09:57:02;1.73;;;0.90;;
38037;SDS011;23843;51.320;12.340;2023-01-16T09:59:35;1.80;;;1.00;;
38037;SDS011;23843;51.320;12.340;2023-01-16T10:02:07;1.63;;;1.03;;
38037;SDS011;23843;51.320;12.340;2023-01-16T10:04:41;3.37;;;1.00;;
38037;SDS011;23843;51.320;12.340;2023-01-16T10:10:14;3.17;;;0.83;;
38037;SDS011;23843;51.320;12.340;2023-01-16T10:12:50;1.47;;;0.90;;
38037;SDS011;23843;51.320;12.340;2023-01-16T10:15:28;1.53;;;0.80;;
38037;SDS011;23843;51.320;12.340;2023-01-16T10:18:04;2.10;;;0.93;;
38037;SDS011;23843;51.320;12.340;2023-01-16T10:20:44;3.10;;;0.80;;
38037;SDS011;23843;51.320;12.340;2023-01-16T10:23:22;3.13;;;1.20;;
38037;SDS011;23843;51.320;12.340;2023-01-16T10:25:52;3.50;;;2.00;;
38037;SDS011;23843;51.320;12.340;2023-01-16T10:28:27;4.30;;;1.30;;
38037;SDS011;23843;51.320;12.340;2023-01-16T10:31:08;4.17;;;1.27;;
38037;SDS011;23843;51.320;12.340;2023-01-16T10:33:40;2.03;;;0.90;;
38037;SDS011;23843;51.320;12.340;2023-01-16T10:36:10;1.77;;;0.97;;
38037;SDS011;23843;51.320;12.340;2023-01-16T10:38:40;2.17;;;1.00;;
38037;SDS011;23843;51.320;12.340;2023-01-16T10:41:08;2.33;;;0.90;;
38037;SDS011;23843;51.320;12.340;2023-01-16T10:43:39;2.20;;;0.90;;
38037;SDS011;23843;51.320;12.340;2023-01-16T10:46:10;2.43;;;0.80;;
38037;SDS011;23843;51.320;12.340;2023-01-16T10:48:40;3.60;;;1.10;;
38037;SDS011;23843;51.320;12.340;2023-01-16T10:51:06;2.03;;;0.80;;
38037;SDS011;23843;51.320;12.340;2023-01-16T10:53:32;1.13;;;0.60;;
38037;SDS011;23843;51.320;12.340;2023-01-16T10:56:00;3.77;;;1.00;;
38037;SDS011;23843;51.320;12.340;2023-01-16T10:58:27;2.37;;;1.00;;
38037;SDS011;23843;51.320;12.340;2023-01-16T11:00:56;3.33;;;0.80;;
38037;SDS011;23843;51.320;12.340;2023-01-16T11:03:27;2.57;;;1.03;;
38037;SDS011;23843;51.320;12.340;2023-01-16T11:06:06;2.53;;;0.90;;
38037;SDS011;23843;51.320;12.340;2023-01-16T11:08:33;2.07;;;1.10;;
38037;SDS011;23843;51.320;12.340;2023-01-16T11:10:59;2.90;;;0.80;;
38037;SDS011;23843;51.320;12.340;2023-01-16T11:13:26;1.73;;;0.90;;
38037;SDS011;23843;51.320;12.340;2023-01-16T11:16:00;1.63;;;0.90;;
38037;SDS011;23843;51.320;12.340;2023-01-16T11:18:26;3.97;;;1.30;;
38037;SDS011;23843;51.320;12.340;2023-01-16T11:20:53;3.03;;;0.97;;
38037;SDS011;23843;51.320;12.340;2023-01-16T11:23:21;1.80;;;0.90;;
38037;SDS011;23843;51.320;12.340;2023-01-16T11:25:48;3.57;;;0.90;;
38037;SDS011;23843;51.320;12.340;2023-01-16T11:28:17;2.83;;;0.87;;
38037;SDS011;23843;51.320;12.340;2023-01-16T11:30:45;1.53;;;0.70;;
38037;SDS011;23843;51.320;12.340;2023-01-16T11:33:13;1.57;;;0.73;;
38037;SDS011;23843;51.320;12.340;2023-01-16T11:35:40;0.90;;;0.70;;
38037;SDS011;23843;51.320;12.340;2023-01-16T11:38:12;1.90;;;0.80;;
38037;SDS011;23843;51.320;12.340;2023-01-16T11:40:44;1.27;;;0.70;;
38037;SDS011;23843;51.320;12.340;2023-01-16T11:43:12;1.60;;;0.70;;
38037;SDS011;23843;51.320;12.340;2023-01-16T11:45:42;1.57;;;0.63;;
38037;SDS011;23843;51.320;12.340;2023-01-16T11:48:09;2.37;;;0.80;;
38037;SDS011;23843;51.320;12.340;2023-01-16T11:50:35;0.97;;;0.60;;
38037;SDS011;23843;51.320;12.340;2023-01-16T11:53:01;2.00;;;0.83;;
38037;SDS011;23843;51.320;12.340;2023-01-16T11:55:29;3.00;;;0.80;;
38037;SDS011;23843;51.320;12.340;2023-01-16T11:58:03;1.67;;;0.80;;
38037;SDS011;23843;51.320;12.340;2023-01-16T12:00:37;0.97;;;0.70;;
38037;SDS011;23843;51.320;12.340;2023-01-16T12:03:20;2.33;;;0.70;;
38037;SDS011;23843;51.320;12.340;2023-01-16T12:06:01;1.93;;;0.80;;
38037;SDS011;23843;51.320;12.340;2023-01-16T12:08:38;2.20;;;1.00;;
38037;SDS011;23843;51.320;12.340;2023-01-16T12:11:15;1.47;;;0.80;;
38037;SDS011;23843;51.320;12.340;2023-01-16T12:13:53;2.30;;;0.80;;
38037;SDS011;23843;51.320;12.340;2023-01-16T12:16:28;1.97;;;0.83;;
38037;SDS011;23843;51.320;12.340;2023-01-16T12:19:09;2.80;;;0.60;;
38037;SDS011;23843;51.320;12.340;2023-01-16T12:21:53;2.80;;;0.97;;
38037;SDS011;23843;51.320;12.340;2023-01-16T12:24:31;3.27;;;0.90;;
38037;SDS011;23843;51.320;12.340;2023-01-16T12:27:08;1.10;;;1.00;;
38037;SDS011;23843;51.320;12.340;2023-01-16T12:29:50;4.10;;;1.33;;
38037;SDS011;23843;51.320;12.340;2023-01-16T12:32:28;1.57;;;0.77;;
38037;SDS011;23843;51.320;12.340;2023-01-16T12:38:02;1.43;;;0.67;;
38037;SDS011;23843;51.320;12.340;2023-01-16T12:40:39;2.47;;;1.10;;
38037;SDS011;23843;51.320;12.340;2023-01-16T12:43:19;2.40;;;0.80;;
38037;SDS011;23843;51.320;12.340;2023-01-16T12:45:51;2.07;;;0.80;;
38037;SDS011;23843;51.320;12.340;2023-01-16T12:48:30;2.57;;;0.90;;
38037;SDS011;23843;51.320;12.340;2023-01-16T12:51:20;1.90;;;0.80;;
38037;SDS011;23843;51.320;12.340;2023-01-16T12:54:07;1.63;;;0.60;;
38037;SDS011;23843;51.320;12.340;2023-01-16T12:57:05;1.00;;;0.70;;
38037;SDS011;23843;51.320;12.340;2023-01-16T12:59:49;2.77;;;0.93;;
38037;SDS011;23843;51.320;12.340;2023-01-16T13:02:23;5.53;;;1.20;;
38037;SDS011;23843;51.320;12.340;2023-01-16T13:04:57;1.93;;;0.80;;
38037;SDS011;23843;51.320;12.340;2023-01-16T13:07:27;1.40;;;0.83;;
38037;SDS011;23843;51.320;12.340;2023-01-16T13:09:58;2.03;;;0.80;;
38037;SDS011;23843;51.320;12.340;2023-01-16T13:12:29;1.60;;;0.90;;
38037;SDS011;23843;51.320;12.340;2023-01-16T13:15:04;1.10;;;0.60;;
38037;SDS011;23843;51.320;12.340;2023-01-16T13:17:35;1.37;;;0.70;;
38037;SDS011;23843;51.320;12.340;2023-01-16T13:20:09;0.60;;;0.50;;
38037;SDS011;23843;51.320;12.340;2023-01-16T13:22:38;1.33;;;0.70;;
38037;SDS011;23843;51.320;12.340;2023-01-16T13:25:13;1.33;;;0.80;;
38037;SDS011;23843;51.320;12.340;2023-01-16T13:27:47;2.20;;;0.80;;
38037;SDS011;23843;51.320;12.340;2023-01-16T13:30:18;1.63;;;0.90;;
38037;SDS011;23843;51.320;12.340;2023-01-16T13:32:46;1.13;;;0.60;;
38037;SDS011;23843;51.320;12.340;2023-01-16T13:35:17;1.07;;;0.67;;
38037;SDS011;23843;51.320;12.340;2023-01-16T13:37:56;1.23;;;0.60;;
38037;SDS011;23843;51.320;12.340;2023-01-16T13:43:39;1.00;;;0.60;;
38037;SDS011;23843;51.320;12.340;2023-01-16T13:46:08;2.57;;;0.90;;
38037;SDS011;23843;51.320;12.340;2023-01-16T13:48:36;3.43;;;1.20;;
38037;SDS011;23843;51.320;12.340;2023-01-16T13:51:03;1.07;;;0.60;;
38037;SDS011;23843;51.320;12.340;2023-01-16T13:53:36;0.60;;;0.60;;
38037;SDS011;23843;51.320;12.340;2023-01-16T13:56:03;0.93;;;0.70;;
38037;SDS011;23843;51.320;12.340;2023-01-16T13:58:31;1.77;;;0.87;;
38037;SDS011;23843;51.320;12.340;2023-01-16T14:00:58;2.70;;;0.97;;
38037;SDS011;23843;51.320;12.340;2023-01-16T14:03:26;3.03;;;1.20;;
38037;SDS011;23843;51.320;12.340;2023-01-16T14:05:54;2.20;;;0.97;;
38037;SDS011;23843;51.320;12.340;2023-01-16T14:08:47;2.07;;;0.90;;
38037;SDS011;23843;51.320;12.340;2023-01-16T14:16:58;2.10;;;0.90;;
38037;SDS011;23843;51.320;12.340;2023-01-16T14:19:25;2.33;;;0.63;;
38037;SDS011;23843;51.320;12.340;2023-01-16T14:22:02;1.67;;;0.90;;
38037;SDS011;23843;51.320;12.340;2023-01-16T14:24:29;3.90;;;1.10;;
38037;SDS011;23843;51.320;12.340;2023-01-16T14:27:03;1.73;;;0.87;;
38037;SDS011;23843;51.320;12.340;2023-01-16T14:29:29;1.27;;;0.80;;
38037;SDS011;23843;51.320;12.340;2023-01-16T14:31:59;0.93;;;0.70;;
38037;SDS011;23843;51.320;12.340;2023-01-16T14:34:28;2.07;;;1.00;;
38037;SDS011;23843;51.320;12.340;2023-01-16T14:36:59;0.93;;;0.70;;
38037;SDS011;23843;51.320;12.340;2023-01-16T14:39:31;0.93;;;0.70;;
38037;SDS011;23843;51.320;12.340;2023-01-16T14:42:00;1.57;;;0.97;;
38037;SDS011;23843;51.320;12.340;2023-01-16T14:44:30;2.03;;;0.80;;
38037;SDS011;23843;51.320;12.340;2023-01-16T14:47:05;1.47;;;0.90;;
38037;SDS011;23843;51.320;12.340;2023-01-16T14:49:39;1.07;;;0.77;;
38037;SDS011;23843;51.320;12.340;2023-01-16T14:52:09;1.20;;;0.70;;
38037;SDS011;23843;51.320;12.340;2023-01-16T14:54:35;1.40;;;0.70;;
38037;SDS011;23843;51.320;12.340;2023-01-16T14:57:02;1.70;;;0.97;;
38037;SDS011;23843;51.320;12.340;2023-01-16T14:59:32;2.13;;;1.07;;
38037;SDS011;23843;51.320;12.340;2023-01-16T15:02:00;1.50;;;0.70;;
38037;SDS011;23843;51.320;12.340;2023-01-16T15:04:37;1.50;;;0.80;;
38037;SDS011;23843;51.320;12.340;2023-01-16T15:07:06;1.13;;;0.80;;
38037;SDS011;23843;51.320;12.340;2023-01-16T15:09:33;1.60;;;0.80;;
38037;SDS011;23843;51.320;12.340;2023-01-16T15:12:08;1.40;;;0.70;;
38037;SDS011;23843;51.320;12.340;2023-01-16T15:14:37;3.80;;;0.87;;
38037;SDS011;23843;51.320;12.340;2023-01-16T15:17:11;1.23;;;0.70;;
38037;SDS011;23843;51.320;12.340;2023-01-16T15:19:53;1.33;;;0.70;;
38037;SDS011;23843;51.320;12.340;2023-01-16T15:25:09;1.07;;;0.67;;
38037;SDS011;23843;51.320;12.340;2023-01-16T15:27:42;1.53;;;0.80;;
38037;SDS011;23843;51.320;12.340;2023-01-16T15:30:15;2.93;;;0.90;;
38037;SDS011;23843;51.320;12.340;2023-01-16T15:32:51;1.83;;;1.00;;
38037;SDS011;23843;51.320;12.340;2023-01-16T15:35:17;1.80;;;0.87;;
38037;SDS011;23843;51.320;12.340;2023-01-16T15:37:47;1.40;;;0.80;;
38037;SDS011;23843;51.320;12.340;2023-01-16T15:40:21;0.70;;;0.50;;
38037;SDS011;23843;51.320;12.340;2023-01-16T15:42:48;1.13;;;0.60;;
38037;SDS011;23843;51.320;12.340;2023-01-16T15:45:15;1.40;;;0.60;;
38037;SDS011;23843;51.320;12.340;2023-01-16T15:47:49;1.83;;;0.70;;
38037;SDS011;23843;51.320;12.340;2023-01-16T15:50:30;0.70;;;0.63;;
38037;SDS011;23843;51.320;12.340;2023-01-16T15:53:03;0.90;;;0.80;;
38037;SDS011;23843;51.320;12.340;2023-01-16T15:55:36;1.97;;;0.80;;
38037;SDS011;23843;51.320;12.340;2023-01-16T15:58:04;2.17;;;0.90;;
38037;SDS011;23843;51.320;12.340;2023-01-16T16:00:35;2.17;;;0.90;;
38037;SDS011;23843;51.320;12.340;2023-01-16T16:03:04;1.67;;;0.90;;
38037;SDS011;23843;51.320;12.340;2023-01-16T16:05:36;1.30;;;0.80;;
38037;SDS011;23843;51.320;12.340;2023-01-16T16:08:03;0.70;;;0.60;;
38037;SDS011;23843;51.320;12.340;2023-01-16T16:10:31;1.27;;;0.73;;
38037;SDS011;23843;51.320;12.340;2023-01-16T16:13:02;1.03;;;0.90;;
38037;SDS011;23843;51.320;12.340;2023-01-16T16:15:30;1.63;;;1.00;;
38037;SDS011;23843;51.320;12.340;2023-01-16T16:17:59;1.50;;;0.70;;
38037;SDS011;23843;51.320;12.340;2023-01-16T16:20:26;1.10;;;0.73;;
38037;SDS011;23843;51.320;12.340;2023-01-16T16:22:55;1.37;;;0.90;;
38037;SDS011;23843;51.320;12.340;2023-01-16T16:25:25;2.37;;;1.30;;
38037;SDS011;23843;51.320;12.340;2023-01-16T16:27:54;1.80;;;1.00;;
38037;SDS011;23843;51.320;12.340;2023-01-16T16:30:21;3.80;;;1.20;;
38037;SDS011;23843;51.320;12.340;2023-01-16T16:32:49;2.27;;;1.10;;
38037;SDS011;23843;51.320;12.340;2023-01-16T16:35:16;3.40;;;1.10;;
38037;SDS011;23843;51.320;12.340;2023-01-16T16:37:45;1.57;;;0.90;;
38037;SDS011;23843;51.320;12.340;2023-01-16T16:40:11;1.50;;;0.90;;
38037;SDS011;23843;51.320;12.340;2023-01-16T16:42:49;3.17;;;1.53;;
38037;SDS011;23843;51.320;12.340;2023-01-16T16:45:21;2.93;;;1.50;;
38037;SDS011;23843;51.320;12.340;2023-01-16T16:53:47;3.40;;;1.40;;
38037;SDS011;23843;51.320;12.340;2023-01-16T16:56:18;3.23;;;1.40;;
38037;SDS011;23843;51.320;12.340;2023-01-16T16:58:47;1.40;;;0.87;;
38037;SDS011;23843;51.320;12.340;2023-01-16T17:01:14;2.13;;;1.20;;
38037;SDS011;23843;51.320;12.340;2023-01-16T17:03:47;2.50;;;0.93;;
38037;SDS011;23843;51.320;12.340;2023-01-16T17:06:17;2.10;;;1.20;;
38037;SDS011;23843;51.320;12.340;2023-01-16T17:08:45;1.63;;;1.00;;
38037;SDS011;23843;51.320;12.340;2023-01-16T17:11:10;4.03;;;1.20;;
38037;SDS011;23843;51.320;12.340;2023-01-16T17:13:36;3.10;;;1.17;;
38037;SDS011;23843;51.320;12.340;2023-01-16T17:16:03;2.23;;;1.03;;
38037;SDS011;23843;51.320;12.340;2023-01-16T17:18:38;2.00;;;1.00;;
38037;SDS011;23843;51.320;12.340;2023-01-16T17:21:03;2.40;;;1.00;;
38037;SDS011;23843;51.320;12.340;2023-01-16T17:23:29;2.07;;;1.03;;
38037;SDS011;23843;51.320;12.340;2023-01-16T17:25:55;1.30;;;0.90;;
38037;SDS011;23843;51.320;12.340;2023-01-16T17:28:20;1.97;;;1.00;;
38037;SDS011;23843;51.320;12.340;2023-01-16T17:30:45;2.20;;;0.90;;
38037;SDS011;23843;51.320;12.340;2023-01-16T17:33:13;2.70;;;1.13;;
38037;SDS011;23843;51.320;12.340;2023-01-16T17:35:41;2.13;;;1.00;;
38037;SDS011;23843;51.320;12.340;2023-01-16T17:38:08;2.40;;;1.10;;
38037;SDS011;23843;51.320;12.340;2023-01-16T17:40:36;2.43;;;1.27;;
38037;SDS011;23843;51.320;12.340;2023-01-16T17:43:02;3.17;;;1.20;;
38037;SDS011;23843;51.320;12.340;2023-01-16T17:45:29;2.67;;;1.33;;
38037;SDS011;23843;51.320;12.340;2023-01-16T17:47:57;3.20;;;1.43;;
38037;SDS011;23843;51.320;12.340;2023-01-16T17:50:24;2.77;;;1.53;;
38037;SDS011;23843;51.320;12.340;2023-01-16T17:52:49;2.73;;;1.37;;
38037;SDS011;23843;51.320;12.340;2023-01-16T17:55:15;2.17;;;1.23;;
38037;SDS011;23843;51.320;12.340;2023-01-16T17:57:40;2.63;;;1.30;;
38037;SDS011;23843;51.320;12.340;2023-01-16T18:00:06;4.00;;;1.30;;
38037;SDS011;23843;51.320;12.340;2023-01-16T18:02:32;3.17;;;1.30;;
38037;SDS011;23843;51.320;12.340;2023-01-16T18:04:57;2.73;;;1.30;;
38037;SDS011;23843;51.320;12.340;2023-01-16T18:07:24;3.67;;;1.43;;
38037;SDS011;23843;51.320;12.340;2023-01-16T18:09:50;2.77;;;1.30;;
38037;SDS011;23843;51.320;12.340;2023-01-16T18:12:15;5.43;;;2.67;;
38037;SDS011;23843;51.320;12.340;2023-01-16T18:14:41;2.47;;;1.73;;
38037;SDS011;23843;51.320;12.340;2023-01-16T18:17:07;2.97;;;1.43;;
38037;SDS011;23843;51.320;12.340;2023-01-16T18:19:34;2.67;;;1.50;;
38037;SDS011;23843;51.320;12.340;2023-01-16T18:21:59;1.97;;;1.20;;
38037;SDS011;23843;51.320;12.340;2023-01-16T18:24:26;2.93;;;1.50;;
38037;SDS011;23843;51.320;12.340;2023-01-16T18:26:52;2.53;;;1.30;;
38037;SDS011;23843;51.320;12.340;2023-01-16T18:29:17;3.90;;;1.80;;
38037;SDS011;23843;51.320;12.340;2023-01-16T18:31:43;3.37;;;1.70;;
38037;SDS011;23843;51.320;12.340;2023-01-16T18:34:08;2.57;;;1.53;;
38037;SDS011;23843;51.320;12.340;2023-01-16T18:36:34;1.60;;;0.93;;
38037;SDS011;23843;51.320;12.340;2023-01-16T18:38:59;2.70;;;1.40;;
38037;SDS011;23843;51.320;12.340;2023-01-16T18:41:26;3.07;;;1.50;;
38037;SDS011;23843;51.320;12.340;2023-01-16T18:43:51;2.50;;;1.50;;
38037;SDS011;23843;51.320;12.340;2023-01-16T18:46:17;2.73;;;1.43;;
38037;SDS011;23843;51.320;12.340;2023-01-16T18:48:42;3.83;;;1.57;;
38037;SDS011;23843;51.320;12.340;2023-01-16T18:51:12;2.07;;;1.20;;
38037;SDS011;23843;51.320;12.340;2023-01-16T18:53:39;2.80;;;1.30;;
38037;SDS011;23843;51.320;12.340;2023-01-16T18:56:07;2.43;;;1.60;;
38037;SDS011;23843;51.320;12.340;2023-01-16T18:58:38;2.87;;;1.93;;
38037;SDS011;23843;51.320;12.340;2023-01-16T19:01:04;3.50;;;1.93;;
38037;SDS011;23843;51.320;12.340;2023-01-16T19:03:29;2.83;;;1.80;;
38037;SDS011;23843;51.320;12.340;2023-01-16T19:05:57;3.33;;;1.93;;
38037;SDS011;23843;51.320;12.340;2023-01-16T19:08:23;2.03;;;1.37;;
38037;SDS011;23843;51.320;12.340;2023-01-16T19:10:51;2.43;;;1.77;;
38037;SDS011;23843;51.320;12.340;2023-01-16T19:13:18;3.33;;;1.70;;
38037;SDS011;23843;51.320;12.340;2023-01-16T19:15:48;3.80;;;1.73;;
38037;SDS011;23843;51.320;12.340;2023-01-16T19:18:13;2.47;;;1.70;;
38037;SDS011;23843;51.320;12.340;2023-01-16T19:20:39;2.60;;;1.50;;
38037;SDS011;23843;51.320;12.340;2023-01-16T19:23:04;1.97;;;1.20;;
38037;SDS011;23843;51.320;12.340;2023-01-16T19:25:29;2.77;;;1.70;;
38037;SDS011;23843;51.320;12.340;2023-01-16T19:27:55;3.00;;;1.73;;
38037;SDS011;23843;51.320;12.340;2023-01-16T19:30:20;2.50;;;1.70;;
38037;SDS011;23843;51.320;12.340;2023-01-16T19:32:47;8.00;;;4.27;;
38037;SDS011;23843;51.320;12.340;2023-01-16T19:35:12;4.00;;;2.10;;
38037;SDS011;23843;51.320;12.340;2023-01-16T19:37:38;2.03;;;1.30;;
38037;SDS011;23843;51.320;12.340;2023-01-16T19:40:04;3.93;;;1.53;;
38037;SDS011;23843;51.320;12.340;2023-01-16T19:42:30;3.07;;;1.60;;
38037;SDS011;23843;51.320;12.340;2023-01-16T19:44:55;3.33;;;1.67;;
38037;SDS011;23843;51.320;12.340;2023-01-16T19:47:21;4.17;;;3.00;;
38037;SDS011;23843;51.320;12.340;2023-01-16T19:49:47;4.07;;;2.20;;
38037;SDS011;23843;51.320;12.340;2023-01-16T19:52:13;3.03;;;1.80;;
38037;SDS011;23843;51.320;12.340;2023-01-16T19:54:38;3.17;;;1.60;;
38037;SDS011;23843;51.320;12.340;2023-01-16T19:57:04;4.03;;;1.47;;
38037;SDS011;23843;51.320;12.340;2023-01-16T19:59:29;2.03;;;1.50;;
38037;SDS011;23843;51.320;12.340;2023-01-16T20:01:55;3.53;;;1.70;;
38037;SDS011;23843;51.320;12.340;2023-01-16T20:04:26;3.43;;;1.60;;
38037;SDS011;23843;51.320;12.340;2023-01-16T20:06:55;2.33;;;1.60;;
38037;SDS011;23843;51.320;12.340;2023-01-16T20:09:21;6.13;;;1.80;;
38037;SDS011;23843;51.320;12.340;2023-01-16T20:11:53;2.87;;;1.50;;
38037;SDS011;23843;51.320;12.340;2023-01-16T20:14:21;3.23;;;1.60;;
38037;SDS011;23843;51.320;12.340;2023-01-16T20:16:47;3.27;;;1.90;;
38037;SDS011;23843;51.320;12.340;2023-01-16T20:19:12;2.77;;;1.50;;
38037;SDS011;23843;51.320;12.340;2023-01-16T20:21:40;4.03;;;1.80;;
38037;SDS011;23843;51.320;12.340;2023-01-16T20:24:07;2.33;;;1.60;;
38037;SDS011;23843;51.320;12.340;2023-01-16T20:26:33;3.17;;;1.80;;
38037;SDS011;23843;51.320;12.340;2023-01-16T20:29:03;3.17;;;1.67;;
38037;SDS011;23843;51.320;12.340;2023-01-16T20:31:29;2.73;;;1.57;;
38037;SDS011;23843;51.320;12.340;2023-01-16T20:33:54;1.83;;;1.23;;
38037;SDS011;23843;51.320;12.340;2023-01-16T20:36:20;2.83;;;1.67;;